Aviation Digital Data Service (ADDS)

Output produced by METARs form (1848 UTC 29 July 2014)
found at http://aviationweather.gov/adds/metars/
 
KFAY 291729Z 2918/3018 03004KT P6SM BKN080